Time;durP1;ratioP1;P1;durP2;ratioP2;P2;SDS_P1;SDS_P2;PMS_P1;PMS_P2;Temp;Humidity;BMP_temperature;BMP_pressure;BME280_temperature;BME280_humidity;BME280_pressure;Samples;Min_cycle;Max_cycle;Signal;HPM_P1;HPM_P2
2023/07/07 00:00:27;;;;;;;4.05;2.60;;;18.00;46.90;;;20.12;37.28;97871.28;5032483;28;20052;-44
2023/07/07 00:02:54;;;;;;;4.88;2.90;;;18.10;47.60;;;20.09;37.51;97879.84;5033963;28;20033;-42
2023/07/07 00:05:22;;;;;;;3.70;2.88;;;18.00;47.10;;;20.05;37.67;97866.75;5033998;28;20048;-42
2023/07/07 00:07:50;;;;;;;4.07;2.55;;;18.00;47.50;;;20.01;37.58;97867.41;5033671;28;20038;-42
2023/07/07 00:10:18;;;;;;;5.60;3.42;;;17.90;47.70;;;19.97;37.84;97875.09;5033645;28;20038;-42
2023/07/07 00:12:47;;;;;;;5.03;3.08;;;17.80;47.80;;;19.91;37.83;97878.69;5033877;28;20128;-42
2023/07/07 00:15:15;;;;;;;6.03;3.30;;;17.80;47.90;;;19.91;38.01;97869.72;5033454;28;20053;-42
2023/07/07 00:17:43;;;;;;;4.07;2.70;;;17.80;47.70;;;19.91;37.75;97873.28;5033567;28;20037;-44
2023/07/07 00:20:12;;;;;;;6.18;2.90;;;17.90;47.40;;;19.90;37.45;97868.06;5033461;28;20042;-44
2023/07/07 00:22:40;;;;;;;6.10;3.15;;;17.90;46.90;;;19.88;37.66;97870.16;5033219;28;20496;-42
2023/07/07 00:25:09;;;;;;;4.70;2.65;;;17.90;47.50;;;19.84;38.08;97870.59;5034562;28;20477;-44
2023/07/07 00:27:37;;;;;;;4.65;3.08;;;17.80;47.70;;;19.81;38.18;97865.63;5033318;28;20060;-42
2023/07/07 00:30:07;;;;;;;3.70;2.60;;;17.70;48.10;;;19.78;38.11;97868.75;5032170;28;20412;-46
2023/07/07 00:32:34;;;;;;;3.45;2.97;;;17.70;47.90;;;19.78;38.09;97876.03;5033430;28;20057;-42
2023/07/07 00:35:03;;;;;;;5.43;3.03;;;17.70;47.80;;;19.73;38.15;97865.84;5032108;28;20041;-43
2023/07/07 00:37:31;;;;;;;5.00;2.72;;;17.70;48.10;;;19.71;38.01;97867.09;5032088;28;20446;-41
2023/07/07 00:39:59;;;;;;;6.00;2.97;;;17.60;48.00;;;19.69;38.14;97867.28;5029216;28;20509;-42
2023/07/07 00:42:26;;;;;;;4.05;2.88;;;17.60;48.20;;;19.65;38.33;97869.59;5031794;28;20497;-44
2023/07/07 00:45:12;;;;;;;4.40;2.67;;;17.60;48.30;;;19.61;38.35;97862.97;5033610;28;20057;-42
2023/07/07 00:48:01;;;;;;;3.58;2.75;;;17.60;49.20;;;19.58;38.26;97863.41;5015377;28;20056;-45
2023/07/07 00:50:39;;;;;;;3.75;2.75;;;17.50;48.70;;;19.56;38.69;97867.34;5033157;28;20425;-44
2023/07/07 00:53:07;;;;;;;3.95;2.72;;;17.50;49.70;;;19.53;38.57;97865.91;5009623;28;20505;-41
2023/07/07 00:55:56;;;;;;;6.00;3.03;;;17.50;49.00;;;19.48;38.82;97876.50;5033256;28;20072;-42
2023/07/07 00:58:25;;;;;;;3.92;2.78;;;17.40;49.50;;;19.46;38.82;97878.59;5031819;28;20045;-44
2023/07/07 01:01:05;;;;;;;4.18;2.60;;;17.40;49.20;;;19.45;39.10;97883.16;5015060;28;20037;-42
2023/07/07 01:03:39;;;;;;;5.10;2.83;;;17.40;49.60;;;19.40;39.01;97877.56;5031209;28;20045;-43
2023/07/07 01:06:11;;;;;;;3.30;2.40;;;17.30;49.60;;;19.36;39.03;97880.91;5032801;28;20060;-42
2023/07/07 01:08:42;;;;;;;4.22;2.97;;;17.20;49.30;;;19.35;38.99;97874.69;5014927;28;20049;-42
2023/07/07 01:11:10;;;;;;;5.88;2.70;;;17.30;49.50;;;19.33;39.19;97882.19;5031233;28;20413;-41
2023/07/07 01:13:38;;;;;;;4.22;2.80;;;17.30;49.60;;;19.30;39.35;97887.97;5031941;28;20046;-42
2023/07/07 01:16:46;;;;;;;4.30;2.85;;;17.20;49.80;;;19.27;39.07;97885.72;5032692;28;20052;-42
2023/07/07 01:19:41;;;;;;;7.63;3.53;;;17.30;49.60;;;19.23;39.50;97887.16;5025718;28;20053;-42
2023/07/07 01:22:47;;;;;;;4.18;2.70;;;17.20;50.70;;;19.22;39.26;97894.44;5025835;28;20072;-44
2023/07/07 01:25:55;;;;;;;3.30;2.60;;;17.20;50.80;;;19.19;39.32;97894.88;5025583;28;20065;-42
2023/07/07 01:28:39;;;;;;;6.25;3.40;;;17.20;50.80;;;19.18;39.28;97893.19;5026820;28;20050;-42
2023/07/07 01:31:13;;;;;;;6.45;3.35;;;17.20;51.10;;;19.19;39.40;97892.19;5025130;28;20053;-41
2023/07/07 01:33:42;;;;;;;2.72;2.30;;;17.30;49.70;;;19.19;39.46;97891.31;5030956;28;20054;-42
2023/07/07 01:36:09;;;;;;;6.60;2.88;;;17.20;49.80;;;19.19;39.58;97891.31;5031317;28;20504;-44
2023/07/07 01:38:44;;;;;;;4.63;3.22;;;17.20;49.90;;;19.15;39.51;97888.22;5032118;28;20041;-43
2023/07/07 01:41:52;;;;;;;5.22;3.30;;;17.20;50.50;;;19.12;39.50;97888.66;5031762;28;20042;-43
2023/07/07 01:44:49;;;;;;;5.13;3.10;;;17.20;50.90;;;19.12;39.48;97891.34;5019667;28;20393;-42
2023/07/07 01:47:25;;;;;;;4.95;3.10;;;17.20;50.80;;;19.12;39.37;97887.81;5026304;28;20404;-45
2023/07/07 01:50:05;;;;;;;6.70;3.50;;;17.10;50.20;;;19.11;39.68;97881.56;5030963;28;20050;-57
2023/07/07 01:52:46;;;;;;;5.00;2.90;;;17.20;50.70;;;19.06;39.74;97884.91;5032440;28;20060;-51
2023/07/07 01:55:39;;;;;;;5.03;3.22;;;17.10;50.80;;;19.03;39.67;97876.41;5024454;28;20053;-56
2023/07/07 01:58:10;;;;;;;4.65;3.03;;;17.10;51.00;;;19.00;39.82;97883.06;5008428;28;20060;-56
2023/07/07 02:00:38;;;;;;;3.70;3.00;;;17.00;50.60;;;19.00;39.94;97879.50;5030185;28;20050;-55
2023/07/07 02:03:10;;;;;;;8.32;3.00;;;17.00;50.60;;;19.00;40.00;97874.13;5030374;28;20052;-52
2023/07/07 02:05:38;;;;;;;3.92;3.15;;;17.00;51.20;;;18.96;40.02;97876.44;5031767;28;20060;-55
2023/07/07 02:08:09;;;;;;;3.85;3.00;;;17.00;50.70;;;18.95;40.07;97876.63;5031792;28;20072;-55
2023/07/07 02:10:36;;;;;;;5.55;2.92;;;17.00;50.70;;;18.93;40.07;97874.13;5031429;28;20064;-56
2023/07/07 02:13:05;;;;;;;6.60;4.10;;;17.00;50.60;;;18.93;40.26;97876.00;5030350;28;20053;-56
2023/07/07 02:15:33;;;;;;;5.43;3.67;;;17.00;50.80;;;18.91;40.35;97870.00;5029730;28;20053;-56
2023/07/07 02:18:02;;;;;;;6.82;3.25;;;17.00;51.00;;;18.89;40.24;97879.13;5029901;28;20045;-53
2023/07/07 02:20:31;;;;;;;4.72;3.25;;;17.00;50.70;;;18.87;40.36;97872.28;5030002;28;20064;-56
2023/07/07 02:22:59;;;;;;;5.50;3.20;;;16.90;51.10;;;18.83;40.41;97879.13;5031534;28;20500;-55
2023/07/07 02:25:27;;;;;;;6.07;4.07;;;16.90;51.10;;;18.82;40.44;97875.59;5030131;28;20065;-56
2023/07/07 02:27:54;;;;;;;6.78;2.78;;;16.90;51.40;;;18.78;40.53;97877.00;5029982;28;20076;-56
2023/07/07 02:30:23;;;;;;;5.70;3.28;;;16.80;51.50;;;18.75;40.91;97871.22;5029957;28;20057;-54
2023/07/07 02:32:50;;;;;;;5.90;3.30;;;16.80;52.00;;;18.68;41.04;97866.63;5030618;28;20049;-54
2023/07/07 02:35:18;;;;;;;4.50;2.78;;;16.60;52.50;;;18.64;41.27;97872.66;5030488;28;20053;-56
2023/07/07 02:37:46;;;;;;;5.60;3.70;;;16.60;53.00;;;18.58;41.48;97877.03;5029842;28;20045;-57
2023/07/07 02:40:15;;;;;;;7.20;3.90;;;16.50;53.60;;;18.54;41.64;97877.66;5029969;28;20072;-53
2023/07/07 02:42:43;;;;;;;7.60;3.45;;;16.40;53.90;;;18.49;41.94;97879.09;5030012;28;20057;-54
2023/07/07 02:45:10;;;;;;;5.93;4.28;;;16.40;54.30;;;18.44;42.04;97870.78;5029595;28;20421;-56
2023/07/07 02:47:38;;;;;;;5.97;3.83;;;16.30;54.50;;;18.41;41.99;97871.19;5030481;28;20057;-56
2023/07/07 02:50:06;;;;;;;4.57;3.58;;;16.30;54.40;;;18.39;42.06;97872.44;5029496;28;20050;-55
2023/07/07 02:52:34;;;;;;;6.00;3.83;;;16.30;54.40;;;18.36;42.11;97876.38;5029881;28;20424;-55
2023/07/07 02:55:01;;;;;;;6.07;3.42;;;16.30;54.70;;;18.37;42.26;97872.66;5030300;28;20509;-56
2023/07/07 02:57:29;;;;;;;6.03;4.25;;;16.40;54.10;;;18.36;42.11;97873.69;5030402;28;20046;-55
2023/07/07 02:59:56;;;;;;;6.50;3.47;;;16.40;55.40;;;18.31;42.32;97870.78;5030087;28;20057;-51
2023/07/07 03:02:24;;;;;;;5.47;3.22;;;16.30;54.40;;;18.31;42.45;97873.47;5029833;28;20042;-54
2023/07/07 03:04:52;;;;;;;5.82;3.88;;;16.30;54.50;;;18.30;42.25;97880.72;5030778;28;20505;-55
2023/07/07 03:07:20;;;;;;;6.25;3.58;;;16.30;55.00;;;18.26;42.52;97878.63;5035085;28;20056;-54
2023/07/07 03:09:48;;;;;;;5.93;4.03;;;16.20;55.10;;;18.22;42.64;97877.38;5034174;28;20049;-54
2023/07/07 03:12:16;;;;;;;5.25;3.72;;;16.10;55.20;;;18.20;42.66;97876.75;5033478;28;20064;-56
2023/07/07 03:14:44;;;;;;;6.30;3.72;;;16.10;55.40;;;18.15;42.73;97887.34;5033885;28;20053;-52
2023/07/07 03:17:16;;;;;;;5.85;4.53;;;16.00;55.50;;;18.10;42.98;97886.06;5034433;28;20045;-55
2023/07/07 03:19:46;;;;;;;5.77;3.70;;;16.00;55.90;;;18.08;43.05;97893.50;5033882;28;20049;-56
2023/07/07 03:22:16;;;;;;;6.38;4.10;;;16.00;56.10;;;18.08;43.02;97890.00;5033492;28;20046;-57
2023/07/07 03:24:52;;;;;;;5.82;3.63;;;15.90;56.10;;;18.05;43.24;97890.41;5033215;28;20528;-56
2023/07/07 03:27:29;;;;;;;5.15;3.28;;;15.90;56.60;;;18.04;43.10;97892.25;5033583;28;20060;-53
2023/07/07 03:29:57;;;;;;;5.55;3.42;;;16.00;55.90;;;18.02;43.16;97888.94;5033547;28;20049;-56
2023/07/07 03:32:26;;;;;;;4.85;3.53;;;15.90;56.40;;;18.01;43.26;97889.13;5017300;28;20358;-53
2023/07/07 03:35:00;;;;;;;5.07;3.45;;;15.90;56.20;;;18.00;43.28;97898.28;5033029;28;20045;-57
2023/07/07 03:37:29;;;;;;;6.38;3.67;;;16.00;56.30;;;17.99;43.48;97896.59;5034596;28;20041;-56
2023/07/07 03:39:58;;;;;;;4.43;3.67;;;15.90;56.10;;;17.97;43.60;97904.06;5030566;28;20061;-53
2023/07/07 03:42:26;;;;;;;8.32;4.45;;;16.00;56.20;;;17.94;43.51;97904.47;5032310;28;20045;-55
2023/07/07 03:44:54;;;;;;;5.57;3.30;;;15.90;56.40;;;17.90;43.75;97901.34;5032990;28;20496;-54
2023/07/07 03:47:22;;;;;;;5.45;3.42;;;15.80;56.50;;;17.90;43.54;97904.03;5033149;28;20491;-56
2023/07/07 03:49:49;;;;;;;9.27;4.22;;;15.80;56.30;;;17.88;43.78;97904.22;5033236;28;20042;-57
2023/07/07 03:52:18;;;;;;;5.28;3.83;;;15.80;56.70;;;17.87;43.77;97916.06;5033678;28;20066;-41
2023/07/07 03:54:46;;;;;;;7.28;3.63;;;15.80;56.80;;;17.85;43.79;97917.28;5033049;28;20212;-42
2023/07/07 03:57:13;;;;;;;5.28;3.47;;;15.80;56.90;;;17.84;43.73;97915.63;5025448;28;20509;-41
2023/07/07 03:59:41;;;;;;;7.15;3.55;;;15.80;56.70;;;17.85;43.76;97919.97;5032668;28;20037;-42
2023/07/07 04:02:09;;;;;;;4.88;3.40;;;15.80;56.60;;;17.86;43.83;97919.78;5016569;28;20064;-41
2023/07/07 04:04:36;;;;;;;6.78;3.78;;;15.90;56.60;;;17.86;43.98;97929.72;5032697;28;20049;-41
2023/07/07 04:07:04;;;;;;;5.15;3.50;;;15.90;56.60;;;17.86;44.15;97924.34;5032657;28;20045;-42
2023/07/07 04:09:32;;;;;;;4.68;3.63;;;15.80;56.80;;;17.88;44.08;97924.97;5033869;28;20045;-41
2023/07/07 04:11:59;;;;;;;7.05;4.03;;;15.90;56.80;;;17.92;44.00;97928.09;5032063;28;20049;-41
2023/07/07 04:14:28;;;;;;;6.40;3.20;;;16.00;56.40;;;17.97;44.06;97922.91;5032412;28;20049;-44
2023/07/07 04:16:56;;;;;;;5.00;3.75;;;16.10;56.30;;;18.00;43.91;97920.66;5031481;28;20048;-42
2023/07/07 04:19:24;;;;;;;5.18;3.75;;;16.20;56.00;;;18.04;43.88;97921.06;5033619;28;20041;-41
2023/07/07 04:21:52;;;;;;;6.85;3.22;;;16.20;55.90;;;18.05;43.90;97922.75;5033806;28;20048;-42
2023/07/07 04:24:21;;;;;;;4.50;3.63;;;16.20;56.20;;;18.05;44.00;97925.44;5032719;28;20047;-41
2023/07/07 04:26:48;;;;;;;7.13;3.75;;;16.20;56.00;;;18.08;43.80;97916.94;5033712;28;20042;-42
2023/07/07 04:29:16;;;;;;;5.20;3.40;;;16.30;55.60;;;18.12;43.81;97917.38;5032344;28;20152;-41
2023/07/07 04:31:45;;;;;;;6.40;3.42;;;16.30;55.50;;;18.13;43.82;97921.75;5015820;28;20524;-42
2023/07/07 04:34:15;;;;;;;5.70;3.67;;;16.30;55.40;;;18.18;43.89;97927.31;5033533;28;20050;-42
2023/07/07 04:36:43;;;;;;;5.32;3.58;;;16.40;55.50;;;18.20;43.66;97930.66;5033480;28;20378;-41
2023/07/07 04:39:12;;;;;;;8.73;4.78;;;16.50;55.40;;;18.23;43.65;97931.06;5033312;28;20052;-41
2023/07/07 04:41:40;;;;;;;8.55;4.10;;;16.60;55.00;;;18.27;43.68;97926.13;5033129;28;20037;-41
2023/07/07 04:44:08;;;;;;;6.25;4.72;;;16.60;55.00;;;18.31;43.67;97930.06;5033412;28;20044;-41
2023/07/07 04:46:38;;;;;;;7.68;4.53;;;16.60;55.00;;;18.33;43.70;97930.69;5032369;28;20044;-41
2023/07/07 04:49:08;;;;;;;6.32;4.53;;;16.60;54.90;;;18.36;43.75;97927.59;5033021;28;20049;-41
2023/07/07 04:51:41;;;;;;;6.78;4.30;;;16.70;55.00;;;18.40;43.61;97931.53;5032810;28;20046;-42
2023/07/07 04:54:13;;;;;;;6.68;5.22;;;16.70;55.00;;;18.46;43.61;97929.91;5033109;28;20049;-42
2023/07/07 04:56:41;;;;;;;8.80;5.30;;;16.80;54.90;;;18.48;43.43;97936.72;5032874;28;20044;-44
2023/07/07 04:59:08;;;;;;;5.93;4.72;;;16.90;54.50;;;18.50;43.42;97939.22;5032924;28;20069;-41
2023/07/07 05:01:37;;;;;;;7.75;5.07;;;16.90;54.20;;;18.54;43.71;97943.19;5032886;28;20041;-42
2023/07/07 05:04:05;;;;;;;7.45;4.43;;;17.00;54.30;;;18.57;43.59;97937.38;5032828;28;20037;-41
2023/07/07 05:06:39;;;;;;;6.47;4.30;;;17.10;54.40;;;18.63;43.61;97933.88;5033197;28;20406;-42
2023/07/07 05:09:07;;;;;;;;;;;17.10;54.40;;;18.67;43.41;97932.41;5032991;28;20402;-42
2023/07/07 05:11:35;;;;;;;7.18;4.93;;;17.10;54.90;;;18.72;43.12;97937.19;5032719;28;19921;-42
2023/07/07 05:14:03;;;;;;;7.65;4.57;;;17.00;54.10;;;18.75;43.29;97935.94;5032838;28;20045;-41
2023/07/07 05:16:37;;;;;;;8.35;4.82;;;17.10;54.30;;;18.79;43.52;97934.50;5032610;28;20037;-43
2023/07/07 05:19:06;;;;;;;9.32;5.20;;;17.20;54.40;;;18.82;43.43;97945.72;5032281;28;20060;-44
2023/07/07 05:21:33;;;;;;;8.15;4.38;;;17.20;54.40;;;18.86;43.24;97941.59;5032373;28;20045;-42
2023/07/07 05:24:01;;;;;;;10.43;4.90;;;17.30;54.10;;;18.87;43.26;97937.00;5032780;28;20045;-43
2023/07/07 05:26:29;;;;;;;6.82;5.25;;;17.30;53.90;;;18.90;43.29;97939.28;5032277;28;20034;-44
2023/07/07 05:29:02;;;;;;;6.97;4.30;;;17.30;53.80;;;18.93;43.34;97943.47;5031934;28;20052;-44
2023/07/07 05:31:30;;;;;;;8.43;4.70;;;17.40;54.00;;;18.98;43.22;97941.78;5032118;28;20052;-44
2023/07/07 05:33:58;;;;;;;8.35;4.60;;;17.40;53.50;;;19.02;43.24;97947.63;5032303;28;20535;-46
2023/07/07 05:36:26;;;;;;;7.63;4.68;;;17.40;53.70;;;19.07;43.34;97945.91;5032244;28;20417;-41
2023/07/07 05:38:53;;;;;;;5.45;4.10;;;17.50;53.90;;;19.13;43.38;97938.03;5031581;28;20041;-44
2023/07/07 05:41:21;;;;;;;6.95;4.40;;;17.60;53.90;;;19.17;43.35;97942.78;5030789;28;20038;-44
2023/07/07 05:43:49;;;;;;;5.80;4.03;;;17.60;53.80;;;19.20;43.44;97938.88;5032240;28;20029;-41
2023/07/07 05:46:18;;;;;;;8.55;4.03;;;17.70;54.20;;;19.24;43.52;97945.50;5031841;28;20049;-43
2023/07/07 05:48:46;;;;;;;7.70;3.95;;;17.70;53.90;;;19.28;43.45;97946.75;5032091;28;20064;-43
2023/07/07 05:51:17;;;;;;;5.15;4.18;;;17.80;53.90;;;19.33;43.53;97944.25;5031868;28;20044;-43
2023/07/07 05:54:10;;;;;;;8.02;4.28;;;17.80;53.80;;;19.36;43.36;97945.69;5031842;28;20056;-43
2023/07/07 05:56:37;;;;;;;6.95;3.92;;;17.90;54.70;;;19.44;43.68;97942.78;5024447;28;20041;-43
2023/07/07 05:59:05;;;;;;;16.50;5.47;;;17.90;54.50;;;19.48;43.75;97952.09;5031406;28;20068;-48
2023/07/07 06:01:35;;;;;;;17.35;6.30;;;18.00;54.50;;;19.52;43.83;97955.22;5031584;28;20517;-45
2023/07/07 06:04:03;;;;;;;20.63;5.45;;;18.00;54.50;;;19.56;43.68;97951.06;5030211;28;20041;-44
2023/07/07 06:06:31;;;;;;;19.55;6.50;;;18.10;54.50;;;19.59;43.81;97946.06;5031937;28;20056;-47
2023/07/07 06:08:59;;;;;;;18.10;6.47;;;18.20;54.20;;;19.63;43.44;97957.28;5031617;28;20041;-44
2023/07/07 06:11:26;;;;;;;13.57;5.07;;;18.30;53.80;;;19.70;43.29;97955.41;5023565;28;20041;-48
2023/07/07 06:13:54;;;;;;;10.73;5.05;;;18.30;53.20;;;19.75;43.14;97952.91;5031831;28;20045;-45
2023/07/07 06:16:21;;;;;;;7.55;4.13;;;18.40;52.90;;;19.80;42.97;97954.97;5046615;28;20056;-39
2023/07/07 06:18:49;;;;;;;6.43;3.03;;;18.40;52.60;;;19.84;42.60;97950.81;5030379;28;20040;-43
2023/07/07 06:21:18;;;;;;;8.85;4.90;;;18.40;52.20;;;19.90;42.62;97949.13;5031347;28;20046;-43
2023/07/07 06:23:45;;;;;;;7.60;4.05;;;18.50;52.30;;;19.95;42.47;97952.00;5030521;28;20042;-45
2023/07/07 06:26:13;;;;;;;5.97;3.90;;;18.60;52.00;;;20.02;42.55;97952.81;5031944;28;20041;-43
2023/07/07 06:28:40;;;;;;;6.82;3.35;;;18.70;51.80;;;20.09;42.04;97953.63;5031780;28;20052;-54
2023/07/07 06:31:08;;;;;;;6.13;3.90;;;18.70;51.40;;;20.16;42.07;97956.28;5030982;28;20045;-57
2023/07/07 06:33:36;;;;;;;6.97;4.20;;;18.80;51.10;;;20.21;41.83;97956.47;5031207;28;20044;-56
2023/07/07 06:36:04;;;;;;;7.93;3.83;;;18.90;50.80;;;20.26;41.54;97962.06;5031143;28;20045;-55
2023/07/07 06:38:31;;;;;;;5.45;3.15;;;19.00;50.30;;;20.33;41.29;97965.53;5029858;28;20512;-55
2023/07/07 06:40:59;;;;;;;4.25;3.60;;;19.10;50.10;;;20.39;41.41;97967.38;5030317;28;20033;-54
2023/07/07 06:43:27;;;;;;;5.57;3.92;;;19.20;49.90;;;20.47;41.51;97971.72;5028868;28;20048;-56
2023/07/07 06:45:56;;;;;;;6.60;4.07;;;19.20;50.00;;;20.53;41.74;97975.44;5030824;28;20048;-55
2023/07/07 06:48:23;;;;;;;4.47;3.35;;;19.30;50.20;;;20.58;41.55;97970.22;5031185;28;20049;-54
2023/07/07 06:50:51;;;;;;;4.60;3.85;;;19.30;50.20;;;20.63;41.44;97976.66;5031301;28;20045;-56
2023/07/07 06:53:18;;;;;;;4.80;3.30;;;19.40;51.00;;;20.68;41.54;97972.47;5030979;28;20053;-53
2023/07/07 06:55:46;;;;;;;5.22;3.90;;;19.50;50.30;;;20.75;41.53;97975.97;5031244;28;20042;-52
2023/07/07 06:58:14;;;;;;;5.30;4.28;;;19.50;50.20;;;20.80;41.40;97974.25;5031019;28;20041;-51
2023/07/07 07:00:43;;;;;;;5.97;3.92;;;19.60;50.20;;;20.86;41.60;97977.97;5030821;28;20042;-53
2023/07/07 07:03:11;;;;;;;6.70;3.72;;;19.70;50.40;;;20.91;41.93;97983.53;5029568;28;20041;-54
2023/07/07 07:05:40;;;;;;;7.68;4.25;;;19.70;50.60;;;20.95;41.54;97976.63;5031274;28;20044;-52
2023/07/07 07:08:08;;;;;;;8.00;4.22;;;19.80;50.10;;;21.00;41.75;97976.81;5030987;28;20046;-53
2023/07/07 07:10:36;;;;;;;7.65;3.75;;;19.80;50.10;;;21.07;41.62;97986.75;5030790;28;20497;-52
2023/07/07 07:13:03;;;;;;;5.05;3.80;;;19.90;50.50;;;21.13;41.77;97988.56;5030615;28;20045;-51
2023/07/07 07:15:31;;;;;;;8.35;4.35;;;20.00;50.30;;;21.17;41.61;97987.06;5030968;28;20464;-54
2023/07/07 07:17:59;;;;;;;5.80;3.55;;;20.00;49.90;;;21.21;41.16;97983.72;5029944;28;20037;-55
2023/07/07 07:20:27;;;;;;;7.50;4.13;;;20.10;49.70;;;21.27;41.01;97981.16;5030959;28;20041;-52
2023/07/07 07:22:54;;;;;;;5.47;3.55;;;20.10;49.50;;;21.31;41.09;97985.09;5031161;28;20048;-49
2023/07/07 07:25:22;;;;;;;5.65;3.78;;;20.20;49.20;;;21.37;41.04;97986.94;5030684;28;20044;-55
2023/07/07 07:27:49;;;;;;;4.88;3.45;;;20.30;49.40;;;21.43;41.10;97986.88;5031200;28;20041;-56
2023/07/07 07:30:17;;;;;;;5.65;4.00;;;20.30;49.20;;;21.52;40.76;97994.72;5030381;28;20501;-55
2023/07/07 07:32:45;;;;;;;7.88;3.97;;;20.40;48.50;;;21.59;40.66;97999.03;5031012;28;20394;-56
2023/07/07 07:35:13;;;;;;;6.38;3.83;;;20.40;48.20;;;21.63;40.52;97992.13;5030560;28;20497;-57
2023/07/07 07:37:40;;;;;;;6.05;3.50;;;20.50;48.30;;;21.70;40.10;97989.34;5029447;28;20038;-54
2023/07/07 07:40:09;;;;;;;5.53;3.90;;;20.60;48.20;;;21.75;40.16;97988.66;5029904;28;20044;-55
2023/07/07 07:42:36;;;;;;;6.45;3.92;;;20.60;48.10;;;21.81;40.50;97987.78;5022864;28;20427;-54
2023/07/07 07:45:05;;;;;;;6.03;4.55;;;20.70;48.30;;;21.87;40.01;97983.31;5030880;28;20409;-55
2023/07/07 07:47:34;;;;;;;4.85;3.72;;;20.70;48.10;;;21.93;40.22;97979.72;5029767;28;20045;-53
2023/07/07 07:50:03;;;;;;;7.30;4.47;;;20.80;47.80;;;21.99;39.80;97981.53;5029237;28;20493;-55
2023/07/07 07:52:32;;;;;;;5.07;4.00;;;20.90;47.90;;;22.09;40.03;97981.81;5033326;28;20069;-50
2023/07/07 07:54:59;;;;;;;6.72;4.10;;;20.90;47.80;;;22.15;39.76;97978.19;5034077;28;20090;-57
2023/07/07 07:57:27;;;;;;;6.82;4.15;;;21.10;47.60;;;22.21;39.96;97971.84;5034080;28;20037;-54
2023/07/07 07:59:55;;;;;;;5.90;3.80;;;21.10;47.30;;;22.27;39.67;97972.84;5033850;28;20044;-55
2023/07/07 08:02:23;;;;;;;7.60;3.80;;;21.20;47.30;;;22.34;39.48;97980.91;5033963;28;20413;-54
2023/07/07 08:04:51;;;;;;;8.50;4.07;;;21.30;47.30;;;22.43;39.61;97982.25;5033939;28;20060;-53
2023/07/07 08:07:18;;;;;;;4.93;3.53;;;21.30;47.20;;;22.48;39.45;97976.13;5033876;28;20050;-54
2023/07/07 08:09:46;;;;;;;5.55;4.32;;;21.40;47.10;;;22.54;39.79;97984.16;5032293;28;20053;-54
2023/07/07 08:12:14;;;;;;;6.18;3.80;;;21.50;47.30;;;22.63;39.40;97979.25;5034003;28;20049;-55
2023/07/07 08:14:41;;;;;;;5.65;4.60;;;21.50;46.90;;;22.69;39.28;97980.22;5033574;28;20497;-54
2023/07/07 08:17:12;;;;;;;5.97;3.50;;;21.60;46.90;;;22.76;39.13;97981.78;5033760;28;20049;-55
2023/07/07 08:19:42;;;;;;;6.90;3.65;;;21.70;46.90;;;22.86;38.98;97985.84;5025490;28;20045;-55
2023/07/07 08:22:17;;;;;;;8.60;4.20;;;21.70;46.70;;;22.90;39.06;97981.59;5034109;28;20046;-54
2023/07/07 08:24:54;;;;;;;7.03;4.20;;;21.80;46.30;;;22.96;38.82;97976.03;5026273;28;20041;-52
2023/07/07 08:27:24;;;;;;;7.45;4.05;;;21.90;46.40;;;23.06;38.94;97978.22;5033447;28;20045;-54
2023/07/07 08:29:55;;;;;;;;;;;21.90;46.30;;;23.13;38.82;97983.56;5032606;28;20404;-55
2023/07/07 08:32:23;;;;;;;5.20;3.55;;;22.00;45.70;;;23.25;38.64;97984.38;5033773;28;19928;-56
2023/07/07 08:34:53;;;;;;;5.70;4.00;;;22.10;46.10;;;23.27;38.41;97978.72;5033562;28;20052;-54
2023/07/07 08:37:24;;;;;;;8.20;3.67;;;22.10;45.80;;;23.32;38.61;97979.69;5033462;28;20050;-56
2023/07/07 08:39:53;;;;;;;6.85;4.55;;;22.20;46.10;;;23.44;38.45;97971.53;5032051;28;20492;-58
2023/07/07 08:42:34;;;;;;;5.40;3.90;;;22.30;45.70;;;23.53;38.15;97980.13;5033448;28;20423;-58
2023/07/07 08:45:13;;;;;;;7.53;3.78;;;22.50;45.20;;;23.65;38.02;97978.25;5033405;28;20048;-57
2023/07/07 08:48:20;;;;;;;5.40;4.40;;;22.50;45.00;;;23.74;37.89;97976.81;5031712;28;20052;-58
2023/07/07 08:50:59;;;;;;;7.43;4.55;;;22.70;44.60;;;23.86;37.68;97965.94;5025817;28;20042;-58
2023/07/07 08:53:53;;;;;;;7.22;3.92;;;22.80;43.90;;;23.94;37.70;97968.31;5032152;28;20045;-55
2023/07/07 08:56:59;;;;;;;5.63;4.43;;;22.90;43.70;;;24.07;37.29;97982.72;5032731;28;20070;-56
2023/07/07 08:59:42;;;;;;;6.65;4.28;;;22.90;42.80;;;24.13;37.08;97970.88;5031512;28;20049;-56
2023/07/07 09:02:41;;;;;;;6.43;4.27;;;23.00;43.10;;;24.23;36.93;97970.25;5033903;28;20064;-54
2023/07/07 09:06:08;;;;;;;4.85;3.88;;;23.10;42.90;;;24.35;36.65;97971.06;5028595;28;20515;-54
2023/07/07 09:08:50;;;;;;;7.18;4.72;;;23.30;41.10;;;24.47;36.37;97968.28;5030831;28;20048;-57
2023/07/07 09:11:55;;;;;;;5.20;3.90;;;23.30;41.50;;;24.54;36.58;97964.38;5032687;28;20049;-56
2023/07/07 09:14:27;;;;;;;6.63;4.28;;;23.50;42.30;;;24.67;36.15;97959.69;5032621;28;20056;-58
2023/07/07 09:17:04;;;;;;;6.80;4.22;;;23.60;42.50;;;24.71;35.68;97969.84;5031626;28;20051;-58
2023/07/07 09:19:39;;;;;;;5.53;4.32;;;23.70;41.60;;;24.81;34.97;97955.56;5030788;28;20045;-58
2023/07/07 09:22:40;;;;;;;5.80;4.78;;;23.70;39.90;;;24.90;35.34;97956.00;5031291;28;20060;-58
2023/07/07 09:25:28;;;;;;;8.10;5.57;;;23.90;39.90;;;25.01;34.69;97957.00;5012996;28;20052;-58
2023/07/07 09:28:15;;;;;;;8.18;5.00;;;24.00;38.30;;;25.09;33.82;97948.44;5027617;28;20054;-58
2023/07/07 09:30:53;;;;;;;5.82;4.53;;;24.00;39.10;;;25.17;33.96;97944.47;5032040;28;20444;-58
2023/07/07 09:33:23;;;;;;;6.78;4.88;;;24.10;38.30;;;25.24;32.27;97943.25;5032433;28;20054;-58
2023/07/07 09:36:20;;;;;;;7.15;5.00;;;24.20;37.20;;;25.32;32.22;97939.28;5030060;28;20041;-58
2023/07/07 09:39:42;;;;;;;7.18;4.78;;;24.30;35.10;;;25.42;32.35;97939.44;5024406;28;20044;-58
2023/07/07 09:42:37;;;;;;;6.68;4.60;;;24.40;35.10;;;25.56;32.36;97942.63;5027730;28;20068;-58
2023/07/07 09:45:46;;;;;;;7.43;4.93;;;24.50;35.30;;;25.62;32.13;97936.16;5025423;28;20037;-58
2023/07/07 09:48:45;;;;;;;8.63;5.95;;;24.70;35.10;;;25.71;31.77;97933.84;5027649;28;20603;-58
2023/07/07 09:51:46;;;;;;;6.88;5.07;;;24.80;34.60;;;25.79;31.95;97936.13;5027875;28;20448;-58
2023/07/07 09:54:16;;;;;;;6.30;4.93;;;24.80;34.70;;;25.91;31.16;97925.94;5027825;28;20056;-58
2023/07/07 09:57:05;;;;;;;11.80;5.68;;;24.80;35.70;;;26.00;31.37;97936.41;5014342;28;20060;-59
2023/07/07 09:59:39;;;;;;;7.80;5.50;;;24.90;33.90;;;26.05;31.16;97931.03;5030523;28;20528;-59
2023/07/07 10:02:21;;;;;;;9.20;6.07;;;25.00;35.30;;;26.09;31.08;97921.25;5032018;28;20053;-58
2023/07/07 10:05:03;;;;;;;7.88;5.07;;;25.10;34.50;;;26.18;30.88;97932.56;5022773;28;20417;-59
2023/07/07 10:07:39;;;;;;;7.78;4.90;;;25.20;34.80;;;26.25;30.37;97931.28;5030256;28;20048;-59
2023/07/07 10:10:15;;;;;;;7.18;5.93;;;25.20;34.10;;;26.36;30.46;97926.75;5031660;28;20057;-59
2023/07/07 10:12:45;;;;;;;5.90;4.60;;;25.40;33.70;;;26.45;29.88;97930.66;5031319;28;20049;-59
2023/07/07 10:15:44;;;;;;;8.48;4.18;;;25.40;33.90;;;26.53;30.03;97927.47;5030586;28;20513;-59
2023/07/07 10:18:20;;;;;;;9.63;5.90;;;25.50;33.50;;;26.61;29.69;97926.22;5025160;28;20068;-59
2023/07/07 10:20:48;;;;;;;8.43;6.53;;;25.60;32.60;;;26.68;29.28;97923.28;5031240;28;20497;-58
2023/07/07 10:23:16;;;;;;;7.57;5.35;;;25.70;33.20;;;26.73;29.20;97920.56;5031638;28;20060;-57
2023/07/07 10:25:46;;;;;;;7.53;5.72;;;25.70;32.90;;;26.82;29.50;97926.41;5031546;28;20045;-59
2023/07/07 10:28:18;;;;;;;8.60;5.70;;;25.80;33.50;;;26.86;29.35;97927.53;5031815;28;20295;-58
2023/07/07 10:30:48;;;;;;;7.80;5.40;;;25.80;32.70;;;26.91;28.82;97925.66;5031064;28;20045;-59
2023/07/07 10:33:21;;;;;;;7.07;5.25;;;25.90;32.10;;;26.96;28.37;97921.34;5031672;28;20041;-59
2023/07/07 10:35:49;;;;;;;;;;;25.90;30.90;;;26.98;27.96;97917.25;5031780;28;20485;-58
2023/07/07 10:38:16;;;;;;;7.75;5.78;;;25.90;28.90;;;27.00;27.79;97917.81;5031452;28;20322;-62
2023/07/07 10:40:45;;;;;;;7.30;5.90;;;25.90;31.10;;;27.04;28.03;97920.84;5030895;28;20053;-59
2023/07/07 10:43:15;;;;;;;8.65;6.30;;;26.00;31.70;;;27.17;27.93;97923.13;5030332;28;20049;-59